sensor_id;sensor_type;location;lat;lon;timestamp;pressure;altitude;pressure_sealevel;temperature;humidity
20105;BME280;10212;42.714;23.310;2022-10-22T00:02:29;96069.00;;;6.02;94.23
20105;BME280;10212;42.714;23.310;2022-10-22T00:07:30;96077.97;;;5.90;94.49
20105;BME280;10212;42.714;23.310;2022-10-22T00:12:30;96077.59;;;5.85;94.94
20105;BME280;10212;42.714;23.310;2022-10-22T00:17:30;96072.56;;;5.83;94.49
20105;BME280;10212;42.714;23.310;2022-10-22T00:22:31;96078.28;;;5.87;95.00
20105;BME280;10212;42.714;23.310;2022-10-22T00:27:31;96062.66;;;5.78;94.76
20105;BME280;10212;42.714;23.310;2022-10-22T00:32:32;96053.41;;;5.76;94.91
20105;BME280;10212;42.714;23.310;2022-10-22T00:37:32;96055.03;;;5.77;94.81
20105;BME280;10212;42.714;23.310;2022-10-22T00:42:33;96051.28;;;5.53;96.08
20105;BME280;10212;42.714;23.310;2022-10-22T00:47:35;96061.09;;;5.49;96.18
20105;BME280;10212;42.714;23.310;2022-10-22T00:52:36;96059.19;;;5.51;95.88
20105;BME280;10212;42.714;23.310;2022-10-22T00:57:37;96056.50;;;5.43;95.76
20105;BME280;10212;42.714;23.310;2022-10-22T01:02:37;96045.13;;;5.36;96.45
20105;BME280;10212;42.714;23.310;2022-10-22T01:07:40;96040.53;;;5.29;96.60
20105;BME280;10212;42.714;23.310;2022-10-22T01:33:11;96005.78;;;5.50;95.55
20105;BME280;10212;42.714;23.310;2022-10-22T01:38:14;95997.47;;;5.57;95.57
20105;BME280;10212;42.714;23.310;2022-10-22T01:43:15;96002.78;;;5.55;95.58
20105;BME280;10212;42.714;23.310;2022-10-22T01:53:39;96003.78;;;5.26;97.05
20105;BME280;10212;42.714;23.310;2022-10-22T02:03:47;95998.63;;;5.26;96.95
20105;BME280;10212;42.714;23.310;2022-10-22T02:08:51;96009.19;;;5.33;96.29
20105;BME280;10212;42.714;23.310;2022-10-22T02:13:53;95996.41;;;5.13;96.40
20105;BME280;10212;42.714;23.310;2022-10-22T02:18:55;95999.63;;;5.15;96.33
20105;BME280;10212;42.714;23.310;2022-10-22T02:23:57;95991.97;;;5.05;96.32
20105;BME280;10212;42.714;23.310;2022-10-22T02:34:02;96000.72;;;4.94;97.76
20105;BME280;10212;42.714;23.310;2022-10-22T02:39:04;96009.75;;;4.90;97.71
20105;BME280;10212;42.714;23.310;2022-10-22T02:44:06;96015.09;;;4.78;98.46
20105;BME280;10212;42.714;23.310;2022-10-22T02:49:07;96024.44;;;4.79;98.14
20105;BME280;10212;42.714;23.310;2022-10-22T02:54:08;96018.97;;;4.92;97.76
20105;BME280;10212;42.714;23.310;2022-10-22T02:59:08;96011.34;;;4.91;97.89
20105;BME280;10212;42.714;23.310;2022-10-22T03:04:09;96009.97;;;4.97;97.78
20105;BME280;10212;42.714;23.310;2022-10-22T03:09:09;96014.63;;;4.93;97.92
20105;BME280;10212;42.714;23.310;2022-10-22T03:14:10;96008.75;;;4.91;98.54
20105;BME280;10212;42.714;23.310;2022-10-22T03:19:10;95998.44;;;4.91;98.22
20105;BME280;10212;42.714;23.310;2022-10-22T03:24:13;96001.69;;;4.93;98.30
20105;BME280;10212;42.714;23.310;2022-10-22T03:29:15;96012.72;;;4.85;98.50
20105;BME280;10212;42.714;23.310;2022-10-22T03:34:15;95999.44;;;4.80;99.10
20105;BME280;10212;42.714;23.310;2022-10-22T03:39:16;95992.59;;;4.89;98.76
20105;BME280;10212;42.714;23.310;2022-10-22T03:44:17;95998.59;;;4.79;98.93
20105;BME280;10212;42.714;23.310;2022-10-22T03:49:18;96002.09;;;4.88;98.80
20105;BME280;10212;42.714;23.310;2022-10-22T03:54:21;95998.06;;;4.86;98.51
20105;BME280;10212;42.714;23.310;2022-10-22T03:59:21;95999.44;;;4.80;98.11
20105;BME280;10212;42.714;23.310;2022-10-22T04:04:22;95986.59;;;4.88;97.26
20105;BME280;10212;42.714;23.310;2022-10-22T04:09:23;95990.59;;;5.01;96.60
20105;BME280;10212;42.714;23.310;2022-10-22T04:14:24;95991.72;;;4.98;96.76
20105;BME280;10212;42.714;23.310;2022-10-22T04:19:26;95986.19;;;4.93;97.38
20105;BME280;10212;42.714;23.310;2022-10-22T04:24:26;95988.78;;;5.11;96.93
20105;BME280;10212;42.714;23.310;2022-10-22T04:29:27;95984.38;;;5.40;96.50
20105;BME280;10212;42.714;23.310;2022-10-22T04:34:27;95985.28;;;5.30;96.25
20105;BME280;10212;42.714;23.310;2022-10-22T04:39:28;95990.66;;;5.37;95.04
20105;BME280;10212;42.714;23.310;2022-10-22T04:44:29;95976.53;;;5.31;94.27
20105;BME280;10212;42.714;23.310;2022-10-22T04:49:29;95982.38;;;5.34;94.29
20105;BME280;10212;42.714;23.310;2022-10-22T04:54:29;96001.53;;;5.41;94.06
20105;BME280;10212;42.714;23.310;2022-10-22T04:59:30;96002.16;;;5.43;93.71
20105;BME280;10212;42.714;23.310;2022-10-22T05:04:30;96004.47;;;5.46;93.29
20105;BME280;10212;42.714;23.310;2022-10-22T05:09:31;96024.06;;;5.49;92.61
20105;BME280;10212;42.714;23.310;2022-10-22T05:14:31;96030.63;;;5.43;91.60
20105;BME280;10212;42.714;23.310;2022-10-22T05:19:33;96027.13;;;5.16;92.48
20105;BME280;10212;42.714;23.310;2022-10-22T05:24:33;96012.03;;;5.11;92.58
20105;BME280;10212;42.714;23.310;2022-10-22T05:29:36;96025.25;;;5.08;92.57
20105;BME280;10212;42.714;23.310;2022-10-22T05:34:36;96026.47;;;5.14;92.69
20105;BME280;10212;42.714;23.310;2022-10-22T05:39:37;96032.59;;;5.13;92.75
20105;BME280;10212;42.714;23.310;2022-10-22T05:44:39;96035.19;;;5.13;93.09
20105;BME280;10212;42.714;23.310;2022-10-22T05:49:40;96033.03;;;5.08;93.42
20105;BME280;10212;42.714;23.310;2022-10-22T05:54:40;96028.66;;;5.09;93.71
20105;BME280;10212;42.714;23.310;2022-10-22T05:59:40;96026.16;;;5.17;93.74
20105;BME280;10212;42.714;23.310;2022-10-22T06:04:41;96036.09;;;5.40;92.21
20105;BME280;10212;42.714;23.310;2022-10-22T06:09:41;96028.72;;;5.45;91.64
20105;BME280;10212;42.714;23.310;2022-10-22T06:14:42;96025.03;;;5.66;91.02
20105;BME280;10212;42.714;23.310;2022-10-22T06:19:42;96035.16;;;5.77;90.48
20105;BME280;10212;42.714;23.310;2022-10-22T06:24:42;96033.91;;;5.82;91.31
20105;BME280;10212;42.714;23.310;2022-10-22T06:29:42;96030.16;;;6.02;90.90
20105;BME280;10212;42.714;23.310;2022-10-22T06:34:43;96040.06;;;6.25;90.81
20105;BME280;10212;42.714;23.310;2022-10-22T06:39:45;96037.81;;;6.57;88.65
20105;BME280;10212;42.714;23.310;2022-10-22T06:44:45;96033.22;;;6.78;88.66
20105;BME280;10212;42.714;23.310;2022-10-22T06:49:47;96038.09;;;6.81;88.66
20105;BME280;10212;42.714;23.310;2022-10-22T06:54:47;96031.59;;;6.77;88.80
20105;BME280;10212;42.714;23.310;2022-10-22T06:59:48;96031.03;;;6.99;88.54
20105;BME280;10212;42.714;23.310;2022-10-22T07:04:48;96035.31;;;7.26;87.76
20105;BME280;10212;42.714;23.310;2022-10-22T07:09:49;96025.00;;;7.42;86.42
20105;BME280;10212;42.714;23.310;2022-10-22T07:14:49;96018.53;;;7.55;85.73
20105;BME280;10212;42.714;23.310;2022-10-22T07:19:50;96033.63;;;7.76;85.18
20105;BME280;10212;42.714;23.310;2022-10-22T07:24:50;96028.59;;;8.00;84.38
20105;BME280;10212;42.714;23.310;2022-10-22T07:29:50;96019.13;;;8.40;82.51
20105;BME280;10212;42.714;23.310;2022-10-22T07:34:51;96015.88;;;8.47;82.07
20105;BME280;10212;42.714;23.310;2022-10-22T07:39:51;96007.72;;;8.58;81.63
20105;BME280;10212;42.714;23.310;2022-10-22T07:44:53;96002.19;;;8.70;81.92
20105;BME280;10212;42.714;23.310;2022-10-22T07:49:53;95988.09;;;8.96;81.15
20105;BME280;10212;42.714;23.310;2022-10-22T07:54:54;95994.19;;;9.11;80.32
20105;BME280;10212;42.714;23.310;2022-10-22T07:59:54;95999.84;;;9.47;77.57
20105;BME280;10212;42.714;23.310;2022-10-22T08:04:57;95988.03;;;9.59;77.78
20105;BME280;10212;42.714;23.310;2022-10-22T08:09:58;95963.63;;;9.60;77.46
20105;BME280;10212;42.714;23.310;2022-10-22T08:14:58;95980.38;;;9.81;76.78
20105;BME280;10212;42.714;23.310;2022-10-22T08:19:59;95969.81;;;9.98;76.10
20105;BME280;10212;42.714;23.310;2022-10-22T08:25:00;95968.66;;;10.16;75.66
20105;BME280;10212;42.714;23.310;2022-10-22T08:30:00;95959.19;;;10.38;74.17
20105;BME280;10212;42.714;23.310;2022-10-22T08:35:01;95962.56;;;10.38;74.60
20105;BME280;10212;42.714;23.310;2022-10-22T08:40:02;95974.47;;;10.56;73.37
20105;BME280;10212;42.714;23.310;2022-10-22T08:45:14;95966.47;;;10.73;73.47
20105;BME280;10212;42.714;23.310;2022-10-22T08:50:22;95952.75;;;10.86;73.12
20105;BME280;10212;42.714;23.310;2022-10-22T08:55:25;95964.94;;;11.16;72.07
20105;BME280;10212;42.714;23.310;2022-10-22T09:10:35;95959.47;;;11.54;69.74
20105;BME280;10212;42.714;23.310;2022-10-22T09:15:37;95940.47;;;11.67;69.19
20105;BME280;10212;42.714;23.310;2022-10-22T09:20:44;95938.03;;;11.88;68.82
20105;BME280;10212;42.714;23.310;2022-10-22T09:25:47;95930.28;;;12.01;68.21
20105;BME280;10212;42.714;23.310;2022-10-22T09:30:48;95925.75;;;12.10;68.30
20105;BME280;10212;42.714;23.310;2022-10-22T09:35:59;95926.00;;;12.22;68.09
20105;BME280;10212;42.714;23.310;2022-10-22T09:41:04;95913.88;;;12.43;66.66
20105;BME280;10212;42.714;23.310;2022-10-22T09:46:06;95910.06;;;12.52;66.66
20105;BME280;10212;42.714;23.310;2022-10-22T09:56:26;95907.78;;;12.85;65.14
20105;BME280;10212;42.714;23.310;2022-10-22T10:01:28;95880.84;;;12.98;63.86
20105;BME280;10212;42.714;23.310;2022-10-22T10:06:30;95884.09;;;13.13;63.77
20105;BME280;10212;42.714;23.310;2022-10-22T10:11:36;95890.72;;;13.16;64.04
20105;BME280;10212;42.714;23.310;2022-10-22T10:16:41;95874.84;;;13.38;62.77
20105;BME280;10212;42.714;23.310;2022-10-22T10:21:51;95866.41;;;13.49;62.98
20105;BME280;10212;42.714;23.310;2022-10-22T10:32:02;95856.88;;;13.96;61.37
20105;BME280;10212;42.714;23.310;2022-10-22T10:47:19;95830.78;;;14.21;60.85
20105;BME280;10212;42.714;23.310;2022-10-22T10:53:05;95816.63;;;14.36;59.62
20105;BME280;10212;42.714;23.310;2022-10-22T11:08:39;95779.22;;;14.80;59.46
20105;BME280;10212;42.714;23.310;2022-10-22T11:13:46;95769.28;;;14.89;59.29
20105;BME280;10212;42.714;23.310;2022-10-22T11:18:52;95759.94;;;15.00;58.41
20105;BME280;10212;42.714;23.310;2022-10-22T11:24:19;95742.09;;;15.27;57.82
20105;BME280;10212;42.714;23.310;2022-10-22T11:29:17;95740.81;;;15.37;56.74
20105;BME280;10212;42.714;23.310;2022-10-22T11:34:21;95743.53;;;15.49;56.62
20105;BME280;10212;42.714;23.310;2022-10-22T11:44:46;95719.50;;;15.64;56.40
20105;BME280;10212;42.714;23.310;2022-10-22T11:49:58;95717.09;;;15.81;56.08
20105;BME280;10212;42.714;23.310;2022-10-22T11:55:02;95709.84;;;15.95;55.37
20105;BME280;10212;42.714;23.310;2022-10-22T12:00:08;95704.09;;;16.05;55.47
20105;BME280;10212;42.714;23.310;2022-10-22T12:05:31;95703.31;;;15.98;55.46
20105;BME280;10212;42.714;23.310;2022-10-22T12:10:47;95698.63;;;16.19;54.80
20105;BME280;10212;42.714;23.310;2022-10-22T12:15:50;95676.97;;;16.35;54.46
20105;BME280;10212;42.714;23.310;2022-10-22T12:20:52;95686.03;;;16.51;54.36
20105;BME280;10212;42.714;23.310;2022-10-22T12:25:52;95685.13;;;16.58;54.53
20105;BME280;10212;42.714;23.310;2022-10-22T12:30:53;95676.56;;;16.62;53.98
20105;BME280;10212;42.714;23.310;2022-10-22T12:35:53;95669.47;;;16.75;52.75
20105;BME280;10212;42.714;23.310;2022-10-22T12:40:56;95657.31;;;16.74;53.06
20105;BME280;10212;42.714;23.310;2022-10-22T12:45:57;95654.81;;;16.79;53.24
20105;BME280;10212;42.714;23.310;2022-10-22T12:50:58;95644.28;;;16.79;53.26
20105;BME280;10212;42.714;23.310;2022-10-22T12:56:00;95635.59;;;16.91;52.89
20105;BME280;10212;42.714;23.310;2022-10-22T13:01:01;95644.72;;;17.00;52.61
20105;BME280;10212;42.714;23.310;2022-10-22T13:11:19;95626.06;;;17.02;53.02
20105;BME280;10212;42.714;23.310;2022-10-22T13:16:20;95632.81;;;17.09;53.11
20105;BME280;10212;42.714;23.310;2022-10-22T13:21:27;95627.53;;;17.33;51.96
20105;BME280;10212;42.714;23.310;2022-10-22T13:26:37;95611.59;;;17.40;52.10
20105;BME280;10212;42.714;23.310;2022-10-22T13:31:43;95616.16;;;17.45;51.81
20105;BME280;10212;42.714;23.310;2022-10-22T13:36:43;95613.06;;;17.48;51.69
20105;BME280;10212;42.714;23.310;2022-10-22T13:41:44;95605.38;;;17.46;51.19
20105;BME280;10212;42.714;23.310;2022-10-22T13:46:45;95611.47;;;17.47;51.25
20105;BME280;10212;42.714;23.310;2022-10-22T13:51:46;95616.16;;;17.45;51.19
20105;BME280;10212;42.714;23.310;2022-10-22T13:56:46;95614.47;;;17.39;50.95
20105;BME280;10212;42.714;23.310;2022-10-22T14:01:47;95610.97;;;17.21;51.62
20105;BME280;10212;42.714;23.310;2022-10-22T14:06:47;95608.78;;;17.18;51.54
20105;BME280;10212;42.714;23.310;2022-10-22T14:11:47;95606.25;;;17.23;51.36
20105;BME280;10212;42.714;23.310;2022-10-22T14:16:48;95599.84;;;17.19;51.78
20105;BME280;10212;42.714;23.310;2022-10-22T14:21:48;95604.53;;;17.29;51.68
20105;BME280;10212;42.714;23.310;2022-10-22T14:26:49;95592.81;;;17.37;51.33
20105;BME280;10212;42.714;23.310;2022-10-22T14:31:49;95599.13;;;17.35;51.00
20105;BME280;10212;42.714;23.310;2022-10-22T14:36:50;95599.13;;;17.35;51.24
20105;BME280;10212;42.714;23.310;2022-10-22T14:41:50;95593.41;;;17.39;51.70
20105;BME280;10212;42.714;23.310;2022-10-22T14:46:50;95586.13;;;17.46;51.16
20105;BME280;10212;42.714;23.310;2022-10-22T14:51:53;95590.28;;;17.42;51.55
20105;BME280;10212;42.714;23.310;2022-10-22T14:56:53;95602.69;;;17.29;51.42
20105;BME280;10212;42.714;23.310;2022-10-22T15:01:53;95592.53;;;17.21;51.80
20105;BME280;10212;42.714;23.310;2022-10-22T15:06:54;95588.41;;;17.01;52.17
20105;BME280;10212;42.714;23.310;2022-10-22T15:11:55;95594.22;;;16.91;52.54
20105;BME280;10212;42.714;23.310;2022-10-22T15:16:55;95599.41;;;16.74;52.95
20105;BME280;10212;42.714;23.310;2022-10-22T15:21:56;95592.97;;;16.58;53.42
20105;BME280;10212;42.714;23.310;2022-10-22T15:26:56;95591.41;;;16.45;54.26
20105;BME280;10212;42.714;23.310;2022-10-22T15:31:57;95605.91;;;16.23;54.61
20105;BME280;10212;42.714;23.310;2022-10-22T15:36:59;95600.13;;;16.02;55.83
20105;BME280;10212;42.714;23.310;2022-10-22T15:41:59;95618.19;;;15.80;56.75
20105;BME280;10212;42.714;23.310;2022-10-22T15:47:01;95601.16;;;15.52;58.58
20105;BME280;10212;42.714;23.310;2022-10-22T15:52:03;95616.22;;;15.26;59.48
20105;BME280;10212;42.714;23.310;2022-10-22T15:57:03;95619.06;;;15.05;60.62
20105;BME280;10212;42.714;23.310;2022-10-22T16:02:08;95628.78;;;14.79;62.29
20105;BME280;10212;42.714;23.310;2022-10-22T16:07:09;95647.22;;;14.73;62.81
20105;BME280;10212;42.714;23.310;2022-10-22T16:12:09;95647.41;;;14.45;64.71
20105;BME280;10212;42.714;23.310;2022-10-22T16:17:10;95649.72;;;14.35;65.42
20105;BME280;10212;42.714;23.310;2022-10-22T16:22:10;95650.78;;;14.27;65.79
20105;BME280;10212;42.714;23.310;2022-10-22T16:27:12;95640.50;;;14.26;65.85
20105;BME280;10212;42.714;23.310;2022-10-22T16:32:13;95646.13;;;14.29;66.14
20105;BME280;10212;42.714;23.310;2022-10-22T16:37:15;95635.78;;;14.34;65.92
20105;BME280;10212;42.714;23.310;2022-10-22T16:42:15;95645.38;;;14.47;65.73
20105;BME280;10212;42.714;23.310;2022-10-22T16:47:15;95632.66;;;14.51;65.63
20105;BME280;10212;42.714;23.310;2022-10-22T16:52:16;95623.13;;;14.57;65.84
20105;BME280;10212;42.714;23.310;2022-10-22T16:57:16;95634.53;;;14.69;65.25
20105;BME280;10212;42.714;23.310;2022-10-22T17:02:17;95637.22;;;14.63;66.04
20105;BME280;10212;42.714;23.310;2022-10-22T17:07:17;95633.25;;;14.53;66.39
20105;BME280;10212;42.714;23.310;2022-10-22T17:12:17;95625.66;;;14.45;67.14
20105;BME280;10212;42.714;23.310;2022-10-22T17:17:18;95612.81;;;14.30;68.12
20105;BME280;10212;42.714;23.310;2022-10-22T17:22:18;95639.38;;;14.15;68.52
20105;BME280;10212;42.714;23.310;2022-10-22T17:27:18;95647.28;;;14.08;69.36
20105;BME280;10212;42.714;23.310;2022-10-22T17:32:19;95647.69;;;14.05;68.39
20105;BME280;10212;42.714;23.310;2022-10-22T17:37:19;95641.34;;;13.87;68.93
20105;BME280;10212;42.714;23.310;2022-10-22T17:42:19;95642.22;;;13.74;69.75
20105;BME280;10212;42.714;23.310;2022-10-22T17:47:20;95646.03;;;13.71;69.58
20105;BME280;10212;42.714;23.310;2022-10-22T17:52:20;95646.72;;;13.46;71.44
20105;BME280;10212;42.714;23.310;2022-10-22T17:57:21;95653.25;;;13.23;72.31
20105;BME280;10212;42.714;23.310;2022-10-22T18:02:21;95660.09;;;13.11;72.89
20105;BME280;10212;42.714;23.310;2022-10-22T18:07:22;95652.69;;;12.94;73.58
20105;BME280;10212;42.714;23.310;2022-10-22T18:12:22;95650.69;;;12.83;74.34
20105;BME280;10212;42.714;23.310;2022-10-22T18:17:23;95665.78;;;12.74;74.88
20105;BME280;10212;42.714;23.310;2022-10-22T18:22:23;95656.94;;;12.61;75.25
20105;BME280;10212;42.714;23.310;2022-10-22T18:27:24;95649.72;;;12.57;75.87
20105;BME280;10212;42.714;23.310;2022-10-22T18:32:24;95659.38;;;12.42;76.41
20105;BME280;10212;42.714;23.310;2022-10-22T18:37:25;95663.00;;;12.41;76.28
20105;BME280;10212;42.714;23.310;2022-10-22T18:42:25;95668.59;;;12.25;77.21
20105;BME280;10212;42.714;23.310;2022-10-22T18:47:25;95671.81;;;12.13;77.89
20105;BME280;10212;42.714;23.310;2022-10-22T18:52:26;95684.59;;;12.01;78.31
20105;BME280;10212;42.714;23.310;2022-10-22T18:57:26;95695.03;;;12.01;78.17
20105;BME280;10212;42.714;23.310;2022-10-22T19:02:27;95695.88;;;12.09;78.33
20105;BME280;10212;42.714;23.310;2022-10-22T19:07:29;95708.25;;;11.79;79.28
20105;BME280;10212;42.714;23.310;2022-10-22T19:12:30;95703.16;;;11.64;80.44
20105;BME280;10212;42.714;23.310;2022-10-22T19:17:31;95710.56;;;11.61;80.79
20105;BME280;10212;42.714;23.310;2022-10-22T19:22:31;95714.63;;;11.63;80.42
20105;BME280;10212;42.714;23.310;2022-10-22T19:27:34;95707.34;;;11.58;80.72
20105;BME280;10212;42.714;23.310;2022-10-22T19:32:35;95713.84;;;11.76;79.64
20105;BME280;10212;42.714;23.310;2022-10-22T19:37:36;95704.16;;;11.63;81.11
20105;BME280;10212;42.714;23.310;2022-10-22T19:42:36;95692.06;;;11.55;81.49
20105;BME280;10212;42.714;23.310;2022-10-22T19:47:37;95684.41;;;11.47;82.28
20105;BME280;10212;42.714;23.310;2022-10-22T19:52:37;95685.41;;;11.46;82.17
20105;BME280;10212;42.714;23.310;2022-10-22T19:57:38;95697.47;;;11.47;80.67
20105;BME280;10212;42.714;23.310;2022-10-22T20:02:38;95693.47;;;11.51;80.18
20105;BME280;10212;42.714;23.310;2022-10-22T20:07:39;95694.84;;;11.47;80.33
20105;BME280;10212;42.714;23.310;2022-10-22T20:12:40;95693.13;;;11.26;81.41
20105;BME280;10212;42.714;23.310;2022-10-22T20:17:40;95697.69;;;11.17;80.97
20105;BME280;10212;42.714;23.310;2022-10-22T20:22:41;95700.72;;;11.20;81.38
20105;BME280;10212;42.714;23.310;2022-10-22T20:27:42;95710.31;;;11.13;81.41
20105;BME280;10212;42.714;23.310;2022-10-22T20:32:42;95698.97;;;10.99;82.27
20105;BME280;10212;42.714;23.310;2022-10-22T20:37:42;95695.19;;;10.73;83.38
20105;BME280;10212;42.714;23.310;2022-10-22T20:42:43;95694.81;;;10.54;84.46
20105;BME280;10212;42.714;23.310;2022-10-22T20:47:43;95687.47;;;10.43;85.61
20105;BME280;10212;42.714;23.310;2022-10-22T20:52:44;95695.63;;;10.33;85.85
20105;BME280;10212;42.714;23.310;2022-10-22T20:57:45;95687.84;;;10.40;85.79
20105;BME280;10212;42.714;23.310;2022-10-22T21:02:45;95690.31;;;10.26;86.40
20105;BME280;10212;42.714;23.310;2022-10-22T21:07:46;95697.38;;;10.10;87.83
20105;BME280;10212;42.714;23.310;2022-10-22T21:12:46;95707.88;;;10.17;86.96
20105;BME280;10212;42.714;23.310;2022-10-22T21:17:46;95709.19;;;10.28;86.94
20105;BME280;10212;42.714;23.310;2022-10-22T21:22:47;95705.22;;;10.32;86.56
20105;BME280;10212;42.714;23.310;2022-10-22T21:27:48;95702.44;;;10.34;86.23
20105;BME280;10212;42.714;23.310;2022-10-22T21:32:48;95694.00;;;10.32;86.84
20105;BME280;10212;42.714;23.310;2022-10-22T21:37:48;95691.81;;;10.35;86.67
20105;BME280;10212;42.714;23.310;2022-10-22T21:42:49;95694.03;;;10.38;86.71
20105;BME280;10212;42.714;23.310;2022-10-22T21:47:49;95683.31;;;10.27;86.63
20105;BME280;10212;42.714;23.310;2022-10-22T21:52:50;95688.66;;;10.18;87.40
20105;BME280;10212;42.714;23.310;2022-10-22T21:57:50;95706.47;;;10.15;87.43
20105;BME280;10212;42.714;23.310;2022-10-22T22:02:50;95702.75;;;10.24;86.88
20105;BME280;10212;42.714;23.310;2022-10-22T22:07:51;95708.50;;;10.19;87.47
20105;BME280;10212;42.714;23.310;2022-10-22T22:12:51;95709.06;;;10.15;88.07
20105;BME280;10212;42.714;23.310;2022-10-22T22:17:51;95702.47;;;9.97;88.92
20105;BME280;10212;42.714;23.310;2022-10-22T22:22:52;95699.09;;;9.81;90.07
20105;BME280;10212;42.714;23.310;2022-10-22T22:27:52;95698.19;;;9.74;90.07
20105;BME280;10212;42.714;23.310;2022-10-22T22:32:53;95694.06;;;9.64;90.82
20105;BME280;10212;42.714;23.310;2022-10-22T22:37:53;95688.16;;;9.56;91.43
20105;BME280;10212;42.714;23.310;2022-10-22T22:42:54;95690.69;;;9.49;92.17
20105;BME280;10212;42.714;23.310;2022-10-22T22:47:54;95694.63;;;9.45;92.36
20105;BME280;10212;42.714;23.310;2022-10-22T22:52:54;95683.59;;;9.43;92.59
20105;BME280;10212;42.714;23.310;2022-10-22T22:57:55;95695.63;;;9.44;92.47
20105;BME280;10212;42.714;23.310;2022-10-22T23:02:55;95684.19;;;9.75;90.40
20105;BME280;10212;42.714;23.310;2022-10-22T23:07:56;95700.03;;;9.58;91.45
20105;BME280;10212;42.714;23.310;2022-10-22T23:12:56;95686.91;;;9.51;91.37
20105;BME280;10212;42.714;23.310;2022-10-22T23:17:57;95709.00;;;9.40;92.55
20105;BME280;10212;42.714;23.310;2022-10-22T23:22:57;95707.19;;;9.41;92.21
20105;BME280;10212;42.714;23.310;2022-10-22T23:27:57;95711.06;;;9.30;93.06
20105;BME280;10212;42.714;23.310;2022-10-22T23:32:58;95705.22;;;9.28;93.23
20105;BME280;10212;42.714;23.310;2022-10-22T23:37:58;95702.78;;;9.11;94.41
20105;BME280;10212;42.714;23.310;2022-10-22T23:42:59;95707.28;;;9.18;94.10
20105;BME280;10212;42.714;23.310;2022-10-22T23:47:59;95723.69;;;9.03;94.91
20105;BME280;10212;42.714;23.310;2022-10-22T23:53:00;95719.94;;;9.21;93.88
20105;BME280;10212;42.714;23.310;2022-10-22T23:58:00;95706.28;;;9.19;93.98
